Alpena, South Dakota
Current Conditions -  °F | °C
As of 5:55 AM on Thursday 29 Jan 2015 (Local Time) from KHON Reporting Station
Overcast Overcast  
Wind Chill: 20°   Ceiling: 2000
Heat Index: 32°   Visibility: 10mi
Dew Point: 26°   Wind: 21mph
Humidity: 79%   Direction: 340°NNW
Pressure: 30.3"   Gusts: 29mph
Location:  44.18°N, 98.37°W
Report Text: KHON 291155Z AUTO 34018G25KT 10SM OVC020 00/M03 A3030 RMK AO2 PK WND 34026/1116 SLP271 T00001033 10006 20000 51027
Loading
Personal Weather Stations






























Interactive Weather Map New forecast layout! Learn more

10-Day Weather Forecast

Advertisements
Track Severe Weather on mobile